sensor_id;sensor_type;location;lat;lon;timestamp;P1;durP1;ratioP1;P2;durP2;ratioP2
79452;SDS011;68899;52.116;5.404;2023-12-28T00:01:45;4.22;;;1.98;;
79452;SDS011;68899;52.116;5.404;2023-12-28T00:04:12;3.58;;;2.00;;
79452;SDS011;68899;52.116;5.404;2023-12-28T00:06:39;3.70;;;1.55;;
79452;SDS011;68899;52.116;5.404;2023-12-28T00:09:07;3.83;;;1.73;;
79452;SDS011;68899;52.116;5.404;2023-12-28T00:11:37;4.72;;;1.65;;
79452;SDS011;68899;52.116;5.404;2023-12-28T00:14:04;3.35;;;1.83;;
79452;SDS011;68899;52.116;5.404;2023-12-28T00:16:31;4.35;;;1.55;;
79452;SDS011;68899;52.116;5.404;2023-12-28T00:19:03;5.38;;;1.85;;
79452;SDS011;68899;52.116;5.404;2023-12-28T00:21:30;5.25;;;1.77;;
79452;SDS011;68899;52.116;5.404;2023-12-28T00:23:57;6.78;;;1.88;;
79452;SDS011;68899;52.116;5.404;2023-12-28T00:26:24;3.45;;;1.63;;
79452;SDS011;68899;52.116;5.404;2023-12-28T00:28:51;5.78;;;1.75;;
79452;SDS011;68899;52.116;5.404;2023-12-28T00:31:17;4.20;;;1.58;;
79452;SDS011;68899;52.116;5.404;2023-12-28T00:33:44;5.90;;;1.65;;
79452;SDS011;68899;52.116;5.404;2023-12-28T00:36:11;7.80;;;1.85;;
79452;SDS011;68899;52.116;5.404;2023-12-28T00:38:37;4.68;;;1.30;;
79452;SDS011;68899;52.116;5.404;2023-12-28T00:41:04;5.18;;;1.85;;
79452;SDS011;68899;52.116;5.404;2023-12-28T00:43:30;4.45;;;1.33;;
79452;SDS011;68899;52.116;5.404;2023-12-28T00:45:57;5.72;;;2.15;;
79452;SDS011;68899;52.116;5.404;2023-12-28T00:48:23;5.50;;;2.03;;
79452;SDS011;68899;52.116;5.404;2023-12-28T00:50:50;6.07;;;1.55;;
79452;SDS011;68899;52.116;5.404;2023-12-28T00:53:17;4.68;;;1.67;;
79452;SDS011;68899;52.116;5.404;2023-12-28T00:55:43;5.13;;;1.73;;
79452;SDS011;68899;52.116;5.404;2023-12-28T00:58:10;6.47;;;1.83;;
79452;SDS011;68899;52.116;5.404;2023-12-28T01:00:36;4.53;;;1.67;;
79452;SDS011;68899;52.116;5.404;2023-12-28T01:03:03;3.85;;;1.40;;
79452;SDS011;68899;52.116;5.404;2023-12-28T01:05:30;3.85;;;1.75;;
79452;SDS011;68899;52.116;5.404;2023-12-28T01:07:56;4.05;;;1.35;;
79452;SDS011;68899;52.116;5.404;2023-12-28T01:10:23;3.20;;;1.60;;
79452;SDS011;68899;52.116;5.404;2023-12-28T01:12:50;4.18;;;1.60;;
79452;SDS011;68899;52.116;5.404;2023-12-28T01:15:16;5.93;;;1.50;;
79452;SDS011;68899;52.116;5.404;2023-12-28T01:17:44;6.45;;;1.95;;
79452;SDS011;68899;52.116;5.404;2023-12-28T01:20:11;4.70;;;2.05;;
79452;SDS011;68899;52.116;5.404;2023-12-28T01:22:38;6.20;;;1.45;;
79452;SDS011;68899;52.116;5.404;2023-12-28T01:25:04;4.13;;;1.70;;
79452;SDS011;68899;52.116;5.404;2023-12-28T01:27:31;6.45;;;1.67;;
79452;SDS011;68899;52.116;5.404;2023-12-28T01:29:57;5.28;;;1.75;;
79452;SDS011;68899;52.116;5.404;2023-12-28T01:32:24;5.45;;;1.95;;
79452;SDS011;68899;52.116;5.404;2023-12-28T01:34:51;3.45;;;1.80;;
79452;SDS011;68899;52.116;5.404;2023-12-28T01:37:17;4.10;;;1.60;;
79452;SDS011;68899;52.116;5.404;2023-12-28T01:39:44;3.83;;;1.33;;
79452;SDS011;68899;52.116;5.404;2023-12-28T01:42:10;5.15;;;1.90;;
79452;SDS011;68899;52.116;5.404;2023-12-28T01:44:37;3.28;;;1.30;;
79452;SDS011;68899;52.116;5.404;2023-12-28T01:47:03;5.40;;;1.85;;
79452;SDS011;68899;52.116;5.404;2023-12-28T01:49:32;4.78;;;1.40;;
79452;SDS011;68899;52.116;5.404;2023-12-28T01:52:00;7.35;;;1.73;;
79452;SDS011;68899;52.116;5.404;2023-12-28T01:54:27;5.10;;;1.75;;
79452;SDS011;68899;52.116;5.404;2023-12-28T01:56:55;6.20;;;2.20;;
79452;SDS011;68899;52.116;5.404;2023-12-28T01:59:21;3.55;;;1.73;;
79452;SDS011;68899;52.116;5.404;2023-12-28T02:01:48;7.38;;;1.83;;
79452;SDS011;68899;52.116;5.404;2023-12-28T02:04:15;5.28;;;1.45;;
79452;SDS011;68899;52.116;5.404;2023-12-28T02:06:42;3.20;;;1.55;;
79452;SDS011;68899;52.116;5.404;2023-12-28T02:09:08;4.13;;;1.48;;
79452;SDS011;68899;52.116;5.404;2023-12-28T02:11:35;4.47;;;1.67;;
79452;SDS011;68899;52.116;5.404;2023-12-28T02:14:02;4.68;;;1.42;;
79452;SDS011;68899;52.116;5.404;2023-12-28T02:16:30;4.55;;;1.77;;
79452;SDS011;68899;52.116;5.404;2023-12-28T02:19:00;3.95;;;1.73;;
79452;SDS011;68899;52.116;5.404;2023-12-28T02:21:35;4.35;;;2.20;;
79452;SDS011;68899;52.116;5.404;2023-12-28T02:24:03;4.45;;;1.60;;
79452;SDS011;68899;52.116;5.404;2023-12-28T02:26:29;3.92;;;1.52;;
79452;SDS011;68899;52.116;5.404;2023-12-28T02:28:56;3.60;;;1.67;;
79452;SDS011;68899;52.116;5.404;2023-12-28T02:31:26;5.45;;;2.08;;
79452;SDS011;68899;52.116;5.404;2023-12-28T02:33:59;4.43;;;1.52;;
79452;SDS011;68899;52.116;5.404;2023-12-28T02:36:32;5.70;;;1.50;;
79452;SDS011;68899;52.116;5.404;2023-12-28T02:39:02;4.72;;;1.58;;
79452;SDS011;68899;52.116;5.404;2023-12-28T02:41:30;5.90;;;1.67;;
79452;SDS011;68899;52.116;5.404;2023-12-28T02:43:58;6.82;;;1.75;;
79452;SDS011;68899;52.116;5.404;2023-12-28T02:46:24;3.50;;;1.27;;
79452;SDS011;68899;52.116;5.404;2023-12-28T02:48:51;4.10;;;1.52;;
79452;SDS011;68899;52.116;5.404;2023-12-28T02:51:19;6.10;;;1.30;;
79452;SDS011;68899;52.116;5.404;2023-12-28T02:53:45;3.85;;;1.25;;
79452;SDS011;68899;52.116;5.404;2023-12-28T02:56:12;5.05;;;1.50;;
79452;SDS011;68899;52.116;5.404;2023-12-28T02:58:38;3.20;;;1.33;;
79452;SDS011;68899;52.116;5.404;2023-12-28T03:01:05;2.88;;;1.40;;
79452;SDS011;68899;52.116;5.404;2023-12-28T03:03:31;4.20;;;1.88;;
79452;SDS011;68899;52.116;5.404;2023-12-28T03:05:58;6.00;;;1.40;;
79452;SDS011;68899;52.116;5.404;2023-12-28T03:08:25;3.42;;;1.35;;
79452;SDS011;68899;52.116;5.404;2023-12-28T03:10:51;4.47;;;1.15;;
79452;SDS011;68899;52.116;5.404;2023-12-28T03:13:19;5.60;;;1.38;;
79452;SDS011;68899;52.116;5.404;2023-12-28T03:15:45;6.00;;;1.77;;
79452;SDS011;68899;52.116;5.404;2023-12-28T03:18:12;5.95;;;1.30;;
79452;SDS011;68899;52.116;5.404;2023-12-28T03:20:38;5.85;;;1.20;;
79452;SDS011;68899;52.116;5.404;2023-12-28T03:23:05;5.18;;;1.23;;
79452;SDS011;68899;52.116;5.404;2023-12-28T03:25:31;3.00;;;1.02;;
79452;SDS011;68899;52.116;5.404;2023-12-28T03:27:58;8.38;;;1.23;;
79452;SDS011;68899;52.116;5.404;2023-12-28T03:30:25;7.50;;;1.70;;
79452;SDS011;68899;52.116;5.404;2023-12-28T03:32:51;6.53;;;1.95;;
79452;SDS011;68899;52.116;5.404;2023-12-28T03:35:18;2.53;;;1.05;;
79452;SDS011;68899;52.116;5.404;2023-12-28T03:37:44;4.32;;;1.10;;
79452;SDS011;68899;52.116;5.404;2023-12-28T03:40:11;5.05;;;1.23;;
79452;SDS011;68899;52.116;5.404;2023-12-28T03:42:38;7.20;;;1.45;;
79452;SDS011;68899;52.116;5.404;2023-12-28T03:45:05;4.30;;;1.27;;
79452;SDS011;68899;52.116;5.404;2023-12-28T03:47:31;6.35;;;1.10;;
79452;SDS011;68899;52.116;5.404;2023-12-28T03:49:58;5.95;;;1.80;;
79452;SDS011;68899;52.116;5.404;2023-12-28T03:52:27;3.25;;;1.25;;
79452;SDS011;68899;52.116;5.404;2023-12-28T03:57:23;3.78;;;1.05;;
79452;SDS011;68899;52.116;5.404;2023-12-28T03:59:50;4.70;;;1.40;;
79452;SDS011;68899;52.116;5.404;2023-12-28T04:02:16;5.97;;;1.23;;
79452;SDS011;68899;52.116;5.404;2023-12-28T04:04:43;8.50;;;1.65;;
79452;SDS011;68899;52.116;5.404;2023-12-28T04:07:09;9.00;;;1.52;;
79452;SDS011;68899;52.116;5.404;2023-12-28T04:09:36;8.10;;;1.13;;
79452;SDS011;68899;52.116;5.404;2023-12-28T04:12:03;4.57;;;1.27;;
79452;SDS011;68899;52.116;5.404;2023-12-28T04:14:29;5.25;;;1.95;;
79452;SDS011;68899;52.116;5.404;2023-12-28T04:16:56;6.20;;;0.95;;
79452;SDS011;68899;52.116;5.404;2023-12-28T04:19:22;3.90;;;1.27;;
79452;SDS011;68899;52.116;5.404;2023-12-28T04:21:49;5.47;;;1.15;;
79452;SDS011;68899;52.116;5.404;2023-12-28T04:24:15;4.13;;;1.50;;
79452;SDS011;68899;52.116;5.404;2023-12-28T04:26:42;5.43;;;1.52;;
79452;SDS011;68899;52.116;5.404;2023-12-28T04:29:08;5.53;;;1.20;;
79452;SDS011;68899;52.116;5.404;2023-12-28T04:31:39;6.45;;;1.60;;
79452;SDS011;68899;52.116;5.404;2023-12-28T04:34:08;5.45;;;1.42;;
79452;SDS011;68899;52.116;5.404;2023-12-28T04:36:41;6.97;;;1.95;;
79452;SDS011;68899;52.116;5.404;2023-12-28T04:39:12;4.32;;;0.93;;
79452;SDS011;68899;52.116;5.404;2023-12-28T04:41:39;6.93;;;1.88;;
79452;SDS011;68899;52.116;5.404;2023-12-28T04:44:06;6.05;;;1.23;;
79452;SDS011;68899;52.116;5.404;2023-12-28T04:46:32;6.00;;;1.15;;
79452;SDS011;68899;52.116;5.404;2023-12-28T04:48:58;5.05;;;1.40;;
79452;SDS011;68899;52.116;5.404;2023-12-28T04:51:25;3.55;;;1.67;;
79452;SDS011;68899;52.116;5.404;2023-12-28T04:53:52;6.72;;;1.33;;
79452;SDS011;68899;52.116;5.404;2023-12-28T04:56:18;9.13;;;1.25;;
79452;SDS011;68899;52.116;5.404;2023-12-28T04:58:46;5.32;;;1.05;;
79452;SDS011;68899;52.116;5.404;2023-12-28T05:01:12;6.75;;;1.23;;
79452;SDS011;68899;52.116;5.404;2023-12-28T05:03:40;4.70;;;1.40;;
79452;SDS011;68899;52.116;5.404;2023-12-28T05:06:07;9.57;;;1.33;;
79452;SDS011;68899;52.116;5.404;2023-12-28T05:08:33;8.93;;;1.20;;
79452;SDS011;68899;52.116;5.404;2023-12-28T05:11:00;8.55;;;1.33;;
79452;SDS011;68899;52.116;5.404;2023-12-28T05:13:27;5.35;;;0.70;;
79452;SDS011;68899;52.116;5.404;2023-12-28T05:15:53;8.25;;;1.60;;
79452;SDS011;68899;52.116;5.404;2023-12-28T05:18:20;9.77;;;1.40;;
79452;SDS011;68899;52.116;5.404;2023-12-28T05:20:47;5.63;;;1.33;;
79452;SDS011;68899;52.116;5.404;2023-12-28T05:23:13;4.78;;;1.35;;
79452;SDS011;68899;52.116;5.404;2023-12-28T05:25:40;10.50;;;1.73;;
79452;SDS011;68899;52.116;5.404;2023-12-28T05:28:06;6.07;;;1.52;;
79452;SDS011;68899;52.116;5.404;2023-12-28T05:30:33;9.55;;;1.65;;
79452;SDS011;68899;52.116;5.404;2023-12-28T05:32:59;4.65;;;1.02;;
79452;SDS011;68899;52.116;5.404;2023-12-28T05:35:26;4.05;;;1.00;;
79452;SDS011;68899;52.116;5.404;2023-12-28T05:37:52;5.72;;;1.10;;
79452;SDS011;68899;52.116;5.404;2023-12-28T05:40:20;8.73;;;1.50;;
79452;SDS011;68899;52.116;5.404;2023-12-28T05:42:46;12.10;;;1.58;;
79452;SDS011;68899;52.116;5.404;2023-12-28T05:45:12;8.25;;;1.33;;
79452;SDS011;68899;52.116;5.404;2023-12-28T05:47:39;7.80;;;1.60;;
79452;SDS011;68899;52.116;5.404;2023-12-28T05:50:06;5.97;;;1.23;;
79452;SDS011;68899;52.116;5.404;2023-12-28T05:52:32;6.60;;;1.60;;
79452;SDS011;68899;52.116;5.404;2023-12-28T05:54:59;6.55;;;2.05;;
79452;SDS011;68899;52.116;5.404;2023-12-28T05:57:26;9.65;;;1.27;;
79452;SDS011;68899;52.116;5.404;2023-12-28T05:59:56;5.57;;;1.33;;
79452;SDS011;68899;52.116;5.404;2023-12-28T06:02:23;6.78;;;1.27;;
79452;SDS011;68899;52.116;5.404;2023-12-28T06:04:50;6.60;;;1.55;;
79452;SDS011;68899;52.116;5.404;2023-12-28T06:07:17;10.95;;;1.30;;
79452;SDS011;68899;52.116;5.404;2023-12-28T06:09:43;5.15;;;1.17;;
79452;SDS011;68899;52.116;5.404;2023-12-28T06:12:11;5.82;;;0.95;;
79452;SDS011;68899;52.116;5.404;2023-12-28T06:14:37;8.52;;;1.58;;
79452;SDS011;68899;52.116;5.404;2023-12-28T06:17:04;9.40;;;1.63;;
79452;SDS011;68899;52.116;5.404;2023-12-28T06:19:31;7.05;;;1.25;;
79452;SDS011;68899;52.116;5.404;2023-12-28T06:21:58;9.48;;;1.35;;
79452;SDS011;68899;52.116;5.404;2023-12-28T06:24:24;12.95;;;1.42;;
79452;SDS011;68899;52.116;5.404;2023-12-28T06:26:51;6.30;;;1.45;;
79452;SDS011;68899;52.116;5.404;2023-12-28T06:29:17;9.90;;;1.42;;
79452;SDS011;68899;52.116;5.404;2023-12-28T06:31:44;6.55;;;1.27;;
79452;SDS011;68899;52.116;5.404;2023-12-28T06:34:10;7.85;;;1.63;;
79452;SDS011;68899;52.116;5.404;2023-12-28T06:36:37;8.80;;;1.65;;
79452;SDS011;68899;52.116;5.404;2023-12-28T06:39:04;5.07;;;1.98;;
79452;SDS011;68899;52.116;5.404;2023-12-28T06:41:31;11.48;;;1.52;;
79452;SDS011;68899;52.116;5.404;2023-12-28T06:43:57;6.25;;;1.58;;
79452;SDS011;68899;52.116;5.404;2023-12-28T06:46:24;7.15;;;1.33;;
79452;SDS011;68899;52.116;5.404;2023-12-28T06:48:51;12.80;;;1.90;;
79452;SDS011;68899;52.116;5.404;2023-12-28T06:51:18;7.68;;;1.30;;
79452;SDS011;68899;52.116;5.404;2023-12-28T06:53:46;10.20;;;1.42;;
79452;SDS011;68899;52.116;5.404;2023-12-28T06:56:13;8.25;;;2.08;;
79452;SDS011;68899;52.116;5.404;2023-12-28T06:58:39;9.85;;;1.48;;
79452;SDS011;68899;52.116;5.404;2023-12-28T07:01:06;10.90;;;2.38;;
79452;SDS011;68899;52.116;5.404;2023-12-28T07:03:33;8.43;;;1.45;;
79452;SDS011;68899;52.116;5.404;2023-12-28T07:06:00;9.75;;;2.00;;
79452;SDS011;68899;52.116;5.404;2023-12-28T07:08:27;10.43;;;1.50;;
79452;SDS011;68899;52.116;5.404;2023-12-28T07:10:53;7.05;;;1.33;;
79452;SDS011;68899;52.116;5.404;2023-12-28T07:13:20;6.70;;;1.52;;
79452;SDS011;68899;52.116;5.404;2023-12-28T07:15:46;6.10;;;1.35;;
79452;SDS011;68899;52.116;5.404;2023-12-28T07:18:13;8.20;;;1.27;;
79452;SDS011;68899;52.116;5.404;2023-12-28T07:20:39;9.98;;;1.45;;
79452;SDS011;68899;52.116;5.404;2023-12-28T07:23:06;8.25;;;1.85;;
79452;SDS011;68899;52.116;5.404;2023-12-28T07:25:32;8.93;;;1.58;;
79452;SDS011;68899;52.116;5.404;2023-12-28T07:27:59;8.02;;;1.17;;
79452;SDS011;68899;52.116;5.404;2023-12-28T07:30:26;11.93;;;1.98;;
79452;SDS011;68899;52.116;5.404;2023-12-28T07:32:53;9.48;;;1.50;;
79452;SDS011;68899;52.116;5.404;2023-12-28T07:35:19;12.23;;;1.63;;
79452;SDS011;68899;52.116;5.404;2023-12-28T07:37:46;5.50;;;1.45;;
79452;SDS011;68899;52.116;5.404;2023-12-28T07:40:13;9.65;;;1.65;;
79452;SDS011;68899;52.116;5.404;2023-12-28T07:42:39;8.45;;;1.95;;
79452;SDS011;68899;52.116;5.404;2023-12-28T07:45:06;8.98;;;2.05;;
79452;SDS011;68899;52.116;5.404;2023-12-28T07:47:33;13.52;;;2.28;;
79452;SDS011;68899;52.116;5.404;2023-12-28T07:50:00;7.00;;;1.52;;
79452;SDS011;68899;52.116;5.404;2023-12-28T07:52:26;7.85;;;1.08;;
79452;SDS011;68899;52.116;5.404;2023-12-28T07:54:53;7.28;;;1.63;;
79452;SDS011;68899;52.116;5.404;2023-12-28T07:57:20;9.73;;;1.23;;
79452;SDS011;68899;52.116;5.404;2023-12-28T07:59:47;7.55;;;1.25;;
79452;SDS011;68899;52.116;5.404;2023-12-28T08:02:13;6.93;;;1.23;;
79452;SDS011;68899;52.116;5.404;2023-12-28T08:04:41;10.07;;;1.85;;
79452;SDS011;68899;52.116;5.404;2023-12-28T08:07:07;10.15;;;1.02;;
79452;SDS011;68899;52.116;5.404;2023-12-28T08:09:35;10.10;;;1.77;;
79452;SDS011;68899;52.116;5.404;2023-12-28T08:12:01;10.05;;;1.73;;
79452;SDS011;68899;52.116;5.404;2023-12-28T08:14:29;6.60;;;1.63;;
79452;SDS011;68899;52.116;5.404;2023-12-28T08:16:55;10.85;;;1.70;;
79452;SDS011;68899;52.116;5.404;2023-12-28T08:19:22;6.07;;;1.33;;
79452;SDS011;68899;52.116;5.404;2023-12-28T08:21:48;11.00;;;1.30;;
79452;SDS011;68899;52.116;5.404;2023-12-28T08:24:15;9.35;;;1.42;;
79452;SDS011;68899;52.116;5.404;2023-12-28T08:26:42;5.70;;;1.15;;
79452;SDS011;68899;52.116;5.404;2023-12-28T08:29:09;7.72;;;1.50;;
79452;SDS011;68899;52.116;5.404;2023-12-28T08:31:36;9.05;;;1.60;;
79452;SDS011;68899;52.116;5.404;2023-12-28T08:34:02;7.15;;;2.03;;
79452;SDS011;68899;52.116;5.404;2023-12-28T08:36:29;10.25;;;1.52;;
79452;SDS011;68899;52.116;5.404;2023-12-28T08:38:55;8.45;;;2.40;;
79452;SDS011;68899;52.116;5.404;2023-12-28T08:41:22;11.75;;;2.20;;
79452;SDS011;68899;52.116;5.404;2023-12-28T08:43:53;8.75;;;1.35;;
79452;SDS011;68899;52.116;5.404;2023-12-28T08:46:23;11.27;;;2.05;;
79452;SDS011;68899;52.116;5.404;2023-12-28T08:48:51;9.27;;;1.58;;
79452;SDS011;68899;52.116;5.404;2023-12-28T08:51:17;6.68;;;1.50;;
79452;SDS011;68899;52.116;5.404;2023-12-28T08:53:44;9.38;;;2.17;;
79452;SDS011;68899;52.116;5.404;2023-12-28T08:56:17;7.18;;;1.67;;
79452;SDS011;68899;52.116;5.404;2023-12-28T08:58:45;12.38;;;1.70;;
79452;SDS011;68899;52.116;5.404;2023-12-28T09:01:22;11.15;;;2.58;;
79452;SDS011;68899;52.116;5.404;2023-12-28T09:03:52;8.48;;;0.93;;
79452;SDS011;68899;52.116;5.404;2023-12-28T09:06:20;11.82;;;2.50;;
79452;SDS011;68899;52.116;5.404;2023-12-28T09:08:51;15.30;;;3.20;;
79452;SDS011;68899;52.116;5.404;2023-12-28T09:11:18;9.38;;;1.58;;
79452;SDS011;68899;52.116;5.404;2023-12-28T09:13:45;8.98;;;1.80;;
79452;SDS011;68899;52.116;5.404;2023-12-28T09:16:12;8.02;;;1.42;;
79452;SDS011;68899;52.116;5.404;2023-12-28T09:18:40;10.05;;;1.70;;
79452;SDS011;68899;52.116;5.404;2023-12-28T09:21:07;10.63;;;2.00;;
79452;SDS011;68899;52.116;5.404;2023-12-28T09:23:35;14.40;;;2.83;;
79452;SDS011;68899;52.116;5.404;2023-12-28T09:26:03;9.60;;;1.35;;
79452;SDS011;68899;52.116;5.404;2023-12-28T09:28:31;14.80;;;2.13;;
79452;SDS011;68899;52.116;5.404;2023-12-28T09:30:59;11.13;;;2.78;;
79452;SDS011;68899;52.116;5.404;2023-12-28T09:33:29;11.27;;;1.58;;
79452;SDS011;68899;52.116;5.404;2023-12-28T09:35:57;8.88;;;1.67;;
79452;SDS011;68899;52.116;5.404;2023-12-28T09:38:24;8.70;;;1.58;;
79452;SDS011;68899;52.116;5.404;2023-12-28T09:40:53;9.52;;;1.50;;
79452;SDS011;68899;52.116;5.404;2023-12-28T09:45:51;14.60;;;2.20;;
79452;SDS011;68899;52.116;5.404;2023-12-28T09:48:19;10.85;;;1.65;;
79452;SDS011;68899;52.116;5.404;2023-12-28T09:50:51;9.02;;;1.58;;
79452;SDS011;68899;52.116;5.404;2023-12-28T09:53:24;5.80;;;1.20;;
79452;SDS011;68899;52.116;5.404;2023-12-28T09:55:51;9.63;;;1.85;;
79452;SDS011;68899;52.116;5.404;2023-12-28T09:58:19;8.60;;;1.27;;
79452;SDS011;68899;52.116;5.404;2023-12-28T10:00:48;10.88;;;1.52;;
79452;SDS011;68899;52.116;5.404;2023-12-28T10:03:16;7.57;;;1.15;;
79452;SDS011;68899;52.116;5.404;2023-12-28T10:05:44;9.38;;;1.63;;
79452;SDS011;68899;52.116;5.404;2023-12-28T10:08:12;5.43;;;1.27;;
79452;SDS011;68899;52.116;5.404;2023-12-28T10:10:40;8.55;;;1.30;;
79452;SDS011;68899;52.116;5.404;2023-12-28T10:13:07;9.40;;;1.80;;
79452;SDS011;68899;52.116;5.404;2023-12-28T10:15:35;10.73;;;1.35;;
79452;SDS011;68899;52.116;5.404;2023-12-28T10:18:02;8.60;;;1.55;;
79452;SDS011;68899;52.116;5.404;2023-12-28T10:20:30;6.57;;;1.60;;
79452;SDS011;68899;52.116;5.404;2023-12-28T10:22:58;5.47;;;1.30;;
79452;SDS011;68899;52.116;5.404;2023-12-28T10:25:26;13.98;;;1.77;;
79452;SDS011;68899;52.116;5.404;2023-12-28T10:27:53;8.15;;;1.15;;
79452;SDS011;68899;52.116;5.404;2023-12-28T10:30:20;13.85;;;2.30;;
79452;SDS011;68899;52.116;5.404;2023-12-28T10:32:48;13.15;;;1.60;;
79452;SDS011;68899;52.116;5.404;2023-12-28T10:35:15;13.43;;;2.78;;
79452;SDS011;68899;52.116;5.404;2023-12-28T10:37:42;11.15;;;2.10;;
79452;SDS011;68899;52.116;5.404;2023-12-28T10:40:14;7.95;;;1.27;;
79452;SDS011;68899;52.116;5.404;2023-12-28T10:42:51;19.58;;;1.77;;
79452;SDS011;68899;52.116;5.404;2023-12-28T10:45:21;6.90;;;1.40;;
79452;SDS011;68899;52.116;5.404;2023-12-28T10:48:10;11.05;;;1.23;;
79452;SDS011;68899;52.116;5.404;2023-12-28T10:50:41;9.77;;;1.63;;
79452;SDS011;68899;52.116;5.404;2023-12-28T10:53:21;12.98;;;1.70;;
79452;SDS011;68899;52.116;5.404;2023-12-28T11:01:37;9.38;;;1.48;;
79452;SDS011;68899;52.116;5.404;2023-12-28T11:06:36;10.60;;;1.70;;
79452;SDS011;68899;52.116;5.404;2023-12-28T11:09:04;10.18;;;1.77;;
79452;SDS011;68899;52.116;5.404;2023-12-28T11:11:36;12.27;;;1.52;;
79452;SDS011;68899;52.116;5.404;2023-12-28T11:14:03;10.55;;;1.17;;
79452;SDS011;68899;52.116;5.404;2023-12-28T11:16:31;8.00;;;1.30;;
79452;SDS011;68899;52.116;5.404;2023-12-28T11:18:59;8.75;;;1.55;;
79452;SDS011;68899;52.116;5.404;2023-12-28T11:21:26;11.85;;;1.77;;
79452;SDS011;68899;52.116;5.404;2023-12-28T11:23:55;10.98;;;2.20;;
79452;SDS011;68899;52.116;5.404;2023-12-28T11:26:22;10.27;;;1.92;;
79452;SDS011;68899;52.116;5.404;2023-12-28T11:28:48;11.98;;;1.92;;
79452;SDS011;68899;52.116;5.404;2023-12-28T11:31:16;12.88;;;2.40;;
79452;SDS011;68899;52.116;5.404;2023-12-28T11:33:46;11.18;;;1.45;;
79452;SDS011;68899;52.116;5.404;2023-12-28T11:36:26;11.05;;;1.60;;
79452;SDS011;68899;52.116;5.404;2023-12-28T11:39:05;11.88;;;1.70;;
79452;SDS011;68899;52.116;5.404;2023-12-28T11:41:33;11.55;;;1.75;;
79452;SDS011;68899;52.116;5.404;2023-12-28T11:44:01;10.82;;;1.73;;
79452;SDS011;68899;52.116;5.404;2023-12-28T11:46:32;12.30;;;1.52;;
79452;SDS011;68899;52.116;5.404;2023-12-28T11:49:03;9.10;;;2.13;;
79452;SDS011;68899;52.116;5.404;2023-12-28T11:51:31;10.38;;;1.88;;
79452;SDS011;68899;52.116;5.404;2023-12-28T11:53:59;10.02;;;2.47;;
79452;SDS011;68899;52.116;5.404;2023-12-28T11:56:26;8.80;;;2.08;;
79452;SDS011;68899;52.116;5.404;2023-12-28T11:58:53;12.98;;;1.67;;
79452;SDS011;68899;52.116;5.404;2023-12-28T12:01:19;10.95;;;1.90;;
79452;SDS011;68899;52.116;5.404;2023-12-28T12:03:46;8.68;;;1.40;;
79452;SDS011;68899;52.116;5.404;2023-12-28T12:06:12;16.27;;;1.75;;
79452;SDS011;68899;52.116;5.404;2023-12-28T12:08:39;10.63;;;2.15;;
79452;SDS011;68899;52.116;5.404;2023-12-28T12:11:06;10.27;;;1.95;;
79452;SDS011;68899;52.116;5.404;2023-12-28T12:13:33;15.68;;;2.13;;
79452;SDS011;68899;52.116;5.404;2023-12-28T12:16:00;13.55;;;1.88;;
79452;SDS011;68899;52.116;5.404;2023-12-28T12:18:32;10.18;;;1.48;;
79452;SDS011;68899;52.116;5.404;2023-12-28T12:20:59;9.95;;;1.98;;
79452;SDS011;68899;52.116;5.404;2023-12-28T12:23:27;14.18;;;1.95;;
79452;SDS011;68899;52.116;5.404;2023-12-28T12:25:53;15.10;;;1.88;;
79452;SDS011;68899;52.116;5.404;2023-12-28T12:28:20;9.85;;;1.63;;
79452;SDS011;68899;52.116;5.404;2023-12-28T12:30:55;11.40;;;1.75;;
79452;SDS011;68899;52.116;5.404;2023-12-28T12:33:23;10.30;;;1.60;;
79452;SDS011;68899;52.116;5.404;2023-12-28T12:35:52;11.10;;;1.52;;
79452;SDS011;68899;52.116;5.404;2023-12-28T12:38:19;9.48;;;1.50;;
79452;SDS011;68899;52.116;5.404;2023-12-28T12:40:45;9.93;;;1.88;;
79452;SDS011;68899;52.116;5.404;2023-12-28T12:43:12;9.70;;;1.48;;
79452;SDS011;68899;52.116;5.404;2023-12-28T12:45:39;8.60;;;1.48;;
79452;SDS011;68899;52.116;5.404;2023-12-28T12:48:05;14.88;;;1.67;;
79452;SDS011;68899;52.116;5.404;2023-12-28T12:50:32;13.23;;;2.03;;
79452;SDS011;68899;52.116;5.404;2023-12-28T12:53:04;13.18;;;1.55;;
79452;SDS011;68899;52.116;5.404;2023-12-28T12:55:31;14.80;;;2.17;;
79452;SDS011;68899;52.116;5.404;2023-12-28T12:57:58;12.30;;;1.55;;
79452;SDS011;68899;52.116;5.404;2023-12-28T13:00:25;7.13;;;1.80;;
79452;SDS011;68899;52.116;5.404;2023-12-28T13:02:51;11.20;;;1.63;;
79452;SDS011;68899;52.116;5.404;2023-12-28T13:05:20;10.43;;;1.88;;
79452;SDS011;68899;52.116;5.404;2023-12-28T13:07:46;12.00;;;2.25;;
79452;SDS011;68899;52.116;5.404;2023-12-28T13:10:13;8.30;;;1.23;;
79452;SDS011;68899;52.116;5.404;2023-12-28T13:12:40;13.40;;;1.52;;
79452;SDS011;68899;52.116;5.404;2023-12-28T13:15:06;12.25;;;1.65;;
79452;SDS011;68899;52.116;5.404;2023-12-28T13:17:38;15.90;;;2.40;;
79452;SDS011;68899;52.116;5.404;2023-12-28T13:20:05;12.68;;;1.33;;
79452;SDS011;68899;52.116;5.404;2023-12-28T13:22:35;11.68;;;2.28;;
79452;SDS011;68899;52.116;5.404;2023-12-28T13:25:02;11.70;;;1.45;;
79452;SDS011;68899;52.116;5.404;2023-12-28T13:27:30;11.13;;;1.77;;
79452;SDS011;68899;52.116;5.404;2023-12-28T13:29:57;8.77;;;1.70;;
79452;SDS011;68899;52.116;5.404;2023-12-28T13:32:24;10.90;;;1.60;;
79452;SDS011;68899;52.116;5.404;2023-12-28T13:34:50;6.95;;;1.70;;
79452;SDS011;68899;52.116;5.404;2023-12-28T13:37:17;8.77;;;1.55;;
79452;SDS011;68899;52.116;5.404;2023-12-28T13:39:44;10.95;;;1.80;;
79452;SDS011;68899;52.116;5.404;2023-12-28T13:42:10;9.73;;;1.20;;
79452;SDS011;68899;52.116;5.404;2023-12-28T13:44:37;9.57;;;1.73;;
79452;SDS011;68899;52.116;5.404;2023-12-28T13:47:03;11.38;;;1.80;;
79452;SDS011;68899;52.116;5.404;2023-12-28T13:49:34;14.70;;;2.47;;
79452;SDS011;68899;52.116;5.404;2023-12-28T13:52:00;8.40;;;1.42;;
79452;SDS011;68899;52.116;5.404;2023-12-28T13:54:27;14.48;;;2.25;;
79452;SDS011;68899;52.116;5.404;2023-12-28T13:56:54;14.32;;;1.85;;
79452;SDS011;68899;52.116;5.404;2023-12-28T13:59:23;9.05;;;1.55;;
79452;SDS011;68899;52.116;5.404;2023-12-28T14:01:50;12.80;;;2.10;;
79452;SDS011;68899;52.116;5.404;2023-12-28T14:04:17;11.45;;;1.65;;
79452;SDS011;68899;52.116;5.404;2023-12-28T14:06:44;9.30;;;2.58;;
79452;SDS011;68899;52.116;5.404;2023-12-28T14:09:10;10.10;;;1.98;;
79452;SDS011;68899;52.116;5.404;2023-12-28T14:11:38;12.13;;;1.88;;
79452;SDS011;68899;52.116;5.404;2023-12-28T14:14:05;12.10;;;2.03;;
79452;SDS011;68899;52.116;5.404;2023-12-28T14:16:31;11.88;;;2.25;;
79452;SDS011;68899;52.116;5.404;2023-12-28T14:18:59;8.68;;;1.65;;
79452;SDS011;68899;52.116;5.404;2023-12-28T14:21:25;12.18;;;1.77;;
79452;SDS011;68899;52.116;5.404;2023-12-28T14:23:52;15.05;;;2.47;;
79452;SDS011;68899;52.116;5.404;2023-12-28T14:26:19;6.63;;;0.98;;
79452;SDS011;68899;52.116;5.404;2023-12-28T14:28:47;12.20;;;2.03;;
79452;SDS011;68899;52.116;5.404;2023-12-28T14:31:14;13.40;;;1.70;;
79452;SDS011;68899;52.116;5.404;2023-12-28T14:33:41;12.30;;;1.75;;
79452;SDS011;68899;52.116;5.404;2023-12-28T14:36:21;10.27;;;2.45;;
79452;SDS011;68899;52.116;5.404;2023-12-28T14:38:53;14.30;;;1.63;;
79452;SDS011;68899;52.116;5.404;2023-12-28T14:41:20;12.13;;;1.73;;
79452;SDS011;68899;52.116;5.404;2023-12-28T14:43:47;9.73;;;1.45;;
79452;SDS011;68899;52.116;5.404;2023-12-28T14:46:13;7.13;;;1.50;;
79452;SDS011;68899;52.116;5.404;2023-12-28T14:48:40;9.77;;;1.92;;
79452;SDS011;68899;52.116;5.404;2023-12-28T14:51:06;10.18;;;1.83;;
79452;SDS011;68899;52.116;5.404;2023-12-28T14:53:33;9.35;;;1.73;;
79452;SDS011;68899;52.116;5.404;2023-12-28T14:55:59;11.32;;;1.98;;
79452;SDS011;68899;52.116;5.404;2023-12-28T14:58:26;12.98;;;1.95;;